createdAt,value
2018-04-28T00:01:48.590Z,77.90
2018-04-28T00:04:16.199Z,78.30
2018-04-28T00:06:43.669Z,78.50
2018-04-28T00:09:11.911Z,79.40
2018-04-28T00:11:40.184Z,79.40
2018-04-28T00:14:07.663Z,79.30
2018-04-28T00:16:48.857Z,79.50
2018-04-28T00:19:17.092Z,79.30
2018-04-28T00:21:51.503Z,79.30
2018-04-28T00:24:20.289Z,79.10
2018-04-28T00:26:49.702Z,80.00
2018-04-28T00:29:18.012Z,80.50
2018-04-28T00:32:01.135Z,81.40
2018-04-28T00:34:46.334Z,81.40
2018-04-28T00:37:30.473Z,81.50
2018-04-28T00:40:05.339Z,82.10
2018-04-28T00:42:34.304Z,82.10
2018-04-28T00:45:04.681Z,82.70
2018-04-28T00:47:32.192Z,83.00
2018-04-28T00:50:19.166Z,83.20
2018-04-28T00:52:48.339Z,83.50
2018-04-28T00:55:16.755Z,83.50
2018-04-28T00:57:59.879Z,83.80
2018-04-28T01:00:43.573Z,84.30
2018-04-28T01:03:11.116Z,84.20
2018-04-28T01:05:52.002Z,84.60
2018-04-28T01:08:27.231Z,85.40
2018-04-28T01:11:09.617Z,85.80
2018-04-28T01:13:40.779Z,85.50
2018-04-28T01:16:08.286Z,85.80
2018-04-28T01:18:59.484Z,85.70
2018-04-28T01:21:34.459Z,85.90
2018-04-28T01:24:08.528Z,85.90
2018-04-28T01:29:32.593Z,86.50
2018-04-28T01:32:03.944Z,86.60
2018-04-28T01:34:37.375Z,86.40
2018-04-28T01:37:18.203Z,86.40
2018-04-28T01:40:01.431Z,86.40
2018-04-28T01:42:49.536Z,86.80
2018-04-28T01:45:24.683Z,86.20
2018-04-28T01:47:59.765Z,86.30
2018-04-28T01:50:28.176Z,86.20
2018-04-28T01:52:58.150Z,85.30
2018-04-28T01:55:34.308Z,85.10
2018-04-28T01:58:10.600Z,84.70
2018-04-28T02:00:59.900Z,85.40
2018-04-28T02:03:28.133Z,86.30
2018-04-28T02:08:59.187Z,86.50
2018-04-28T02:11:27.563Z,87.00
2018-04-28T02:14:12.746Z,87.10
2018-04-28T02:16:40.220Z,87.00
2018-04-28T02:19:21.246Z,88.00
2018-04-28T02:21:56.252Z,88.20
2018-04-28T02:24:28.388Z,88.40
2018-04-28T02:26:56.622Z,88.30
2018-04-28T02:29:30.084Z,88.50
2018-04-28T02:32:10.017Z,88.50
2018-04-28T02:34:47.054Z,88.40
2018-04-28T02:37:39.251Z,88.50
2018-04-28T02:40:13.528Z,89.50
2018-04-28T02:42:41.928Z,89.50
2018-04-28T02:45:15.184Z,89.80
2018-04-28T02:47:42.667Z,90.10
2018-04-28T02:50:11.146Z,90.00
2018-04-28T02:52:44.339Z,90.10
2018-04-28T02:58:39.184Z,90.60
2018-04-28T03:01:27.542Z,90.60
2018-04-28T03:03:59.656Z,90.90
2018-04-28T03:09:24.715Z,90.60
2018-04-28T03:12:02.784Z,90.80
2018-04-28T03:14:30.276Z,90.80
2018-04-28T03:17:03.615Z,91.00
2018-04-28T03:19:33.008Z,91.10
2018-04-28T03:22:00.486Z,91.10
2018-04-28T03:24:52.388Z,91.20
2018-04-28T03:30:28.361Z,90.60
2018-04-28T03:33:11.524Z,90.80
2018-04-28T03:35:58.704Z,90.80
2018-04-28T03:38:26.980Z,90.60
2018-04-28T03:40:54.474Z,90.50
2018-04-28T03:43:24.893Z,90.60
2018-04-28T03:46:07.248Z,90.20
2018-04-28T03:49:05.010Z,90.00
2018-04-28T03:51:34.071Z,90.00
2018-04-28T03:54:05.064Z,90.20
2018-04-28T03:56:34.069Z,89.10
2018-04-28T03:59:13.489Z,89.10
2018-04-28T04:01:53.634Z,89.10
2018-04-28T04:04:23.796Z,88.30
2018-04-28T04:07:14.940Z,88.20
2018-04-28T04:09:45.267Z,88.50
2018-04-28T04:12:24.779Z,88.20
2018-04-28T04:14:57.730Z,88.00
2018-04-28T04:17:29.732Z,87.90
2018-04-28T04:20:12.000Z,87.90
2018-04-28T04:22:48.880Z,88.80
2018-04-28T04:25:33.214Z,88.80
2018-04-28T04:28:17.991Z,88.30
2018-04-28T04:30:51.696Z,88.30
2018-04-28T04:36:32.143Z,88.10
2018-04-28T04:42:33.549Z,89.00
2018-04-28T04:45:25.042Z,88.40
2018-04-28T04:48:29.000Z,88.30
2018-04-28T04:51:15.233Z,88.60
2018-04-28T04:53:50.495Z,89.20
2018-04-28T04:56:41.621Z,90.10
2018-04-28T04:59:30.552Z,89.20
2018-04-28T05:02:18.452Z,89.10
2018-04-28T05:04:52.826Z,89.70
2018-04-28T05:07:31.620Z,89.60
2018-04-28T05:10:20.720Z,89.60
2018-04-28T05:12:59.691Z,89.90
2018-04-28T05:15:32.728Z,89.90
2018-04-28T05:18:21.834Z,89.70
2018-04-28T05:20:54.116Z,89.70
2018-04-28T05:23:45.084Z,89.60
2018-04-28T05:26:19.436Z,89.90
2018-04-28T05:28:58.420Z,90.00
2018-04-28T05:31:50.353Z,90.20
2018-04-28T05:34:33.116Z,90.20
2018-04-28T05:40:17.273Z,90.30
2018-04-28T05:42:56.669Z,89.90
2018-04-28T05:45:36.943Z,90.40
2018-04-28T05:48:28.148Z,90.40
2018-04-28T05:51:18.194Z,90.40
2018-04-28T05:53:57.604Z,90.50
2018-04-28T05:56:44.875Z,90.20
2018-04-28T05:59:21.967Z,90.40
2018-04-28T06:01:58.012Z,90.70
2018-04-28T06:04:52.312Z,90.70
2018-04-28T06:07:26.398Z,90.50
2018-04-28T06:12:59.704Z,90.30
2018-04-28T06:15:38.844Z,90.00
2018-04-28T06:18:22.287Z,90.40
2018-04-28T06:20:49.768Z,90.70
2018-04-28T06:23:18.027Z,90.80
2018-04-28T06:25:46.388Z,90.80
2018-04-28T06:28:13.866Z,90.70
2018-04-28T06:30:42.134Z,90.80
2018-04-28T06:33:09.602Z,90.80
2018-04-28T06:35:38.329Z,90.60
2018-04-28T06:38:05.829Z,90.60
2018-04-28T06:40:33.314Z,90.50
2018-04-28T06:43:00.803Z,90.50
2018-04-28T06:45:28.267Z,90.80
2018-04-28T06:47:55.752Z,91.00
2018-04-28T06:50:23.224Z,90.90
2018-04-28T06:52:51.487Z,90.90
2018-04-28T06:55:19.013Z,90.90
2018-04-28T06:57:46.564Z,91.00
2018-04-28T07:00:14.948Z,91.20
2018-04-28T07:02:42.452Z,91.60
2018-04-28T07:05:10.723Z,90.70
2018-04-28T07:07:38.289Z,90.70
2018-04-28T07:10:05.828Z,91.10
2018-04-28T07:12:33.299Z,91.50
2018-04-28T07:15:02.285Z,91.10
2018-04-28T07:17:29.766Z,91.10
2018-04-28T07:19:57.995Z,91.20
2018-04-28T07:22:25.484Z,91.20
2018-04-28T07:24:52.987Z,91.50
2018-04-28T07:27:20.474Z,90.80
2018-04-28T07:29:48.012Z,90.80
2018-04-28T07:32:15.517Z,90.70
2018-04-28T07:34:43.794Z,90.70
2018-04-28T07:37:12.057Z,90.60
2018-04-28T07:39:39.594Z,90.50
2018-04-28T07:42:07.124Z,90.30
2018-04-28T07:44:34.659Z,90.60
2018-04-28T07:47:02.921Z,90.70
2018-04-28T07:49:31.259Z,90.90
2018-04-28T07:51:58.781Z,90.90
2018-04-28T07:54:26.284Z,90.90
2018-04-28T07:56:53.800Z,91.10
2018-04-28T07:59:21.266Z,91.10
2018-04-28T08:01:48.743Z,90.90
2018-04-28T08:04:16.204Z,91.00
2018-04-28T08:06:43.704Z,90.70
2018-04-28T08:09:11.937Z,91.10
2018-04-28T08:11:39.528Z,91.10
2018-04-28T08:14:07.047Z,90.40
2018-04-28T08:16:34.529Z,90.70
2018-04-28T08:19:02.002Z,90.60
2018-04-28T08:21:30.252Z,91.20
2018-04-28T08:23:57.731Z,91.20
2018-04-28T08:26:25.988Z,91.30
2018-04-28T08:28:53.489Z,91.30
2018-04-28T08:31:21.721Z,90.90
2018-04-28T08:33:49.403Z,90.90
2018-04-28T08:36:16.901Z,90.40
2018-04-28T08:38:44.404Z,90.80
2018-04-28T08:41:11.947Z,89.80
2018-04-28T08:43:39.434Z,89.70
2018-04-28T08:46:08.464Z,89.50
2018-04-28T08:48:35.947Z,89.40
2018-04-28T08:51:03.570Z,90.20
2018-04-28T08:53:31.042Z,88.90
2018-04-28T08:55:58.534Z,89.50
2018-04-28T08:58:31.053Z,89.00
2018-04-28T09:01:01.469Z,88.80
2018-04-28T09:03:29.728Z,88.70
2018-04-28T09:05:57.402Z,88.70
2018-04-28T09:08:24.874Z,88.90
2018-04-28T09:10:53.196Z,90.00
2018-04-28T09:13:20.707Z,90.00
2018-04-28T09:15:48.220Z,90.10
2018-04-28T09:18:15.690Z,89.30
2018-04-28T09:20:43.289Z,88.20
2018-04-28T09:23:11.585Z,90.10
2018-04-28T09:25:39.055Z,90.10
2018-04-28T09:28:06.539Z,90.00
2018-04-28T09:30:34.028Z,89.30
2018-04-28T09:33:02.350Z,88.10
2018-04-28T09:35:29.980Z,88.00
2018-04-28T09:37:57.452Z,88.00
2018-04-28T09:40:24.926Z,87.20
2018-04-28T09:42:52.392Z,86.80
2018-04-28T09:45:19.847Z,88.20
2018-04-28T09:47:47.328Z,87.90
2018-04-28T09:50:14.853Z,88.70
2018-04-28T09:52:42.379Z,89.60
2018-04-28T09:55:10.613Z,89.80
2018-04-28T09:57:38.087Z,89.80
2018-04-28T10:00:23.724Z,90.20
2018-04-28T10:02:51.207Z,89.50
2018-04-28T10:05:18.683Z,90.20
2018-04-28T10:07:46.606Z,89.90
2018-04-28T10:10:14.260Z,89.80
2018-04-28T10:12:41.740Z,87.60
2018-04-28T10:15:09.294Z,87.40
2018-04-28T10:17:36.771Z,87.90
2018-04-28T10:20:04.326Z,87.40
2018-04-28T10:22:31.746Z,88.20
2018-04-28T10:24:59.212Z,88.10
2018-04-28T10:27:26.714Z,88.50
2018-04-28T10:29:54.201Z,89.50
2018-04-28T10:32:21.674Z,86.40
2018-04-28T10:34:49.138Z,85.50
2018-04-28T10:37:16.637Z,87.10
2018-04-28T10:39:44.121Z,88.60
2018-04-28T10:42:12.357Z,88.50
2018-04-28T10:44:39.833Z,88.60
2018-04-28T10:47:07.305Z,87.00
2018-04-28T10:49:35.595Z,84.20
2018-04-28T10:52:03.867Z,83.30
2018-04-28T10:54:32.121Z,83.20
2018-04-28T10:56:59.768Z,83.20
2018-04-28T10:59:27.264Z,83.90
2018-04-28T11:01:54.737Z,84.80
2018-04-28T11:04:22.370Z,84.20
2018-04-28T11:06:50.610Z,84.10
2018-04-28T11:09:18.087Z,83.90
2018-04-28T11:11:45.563Z,83.00
2018-04-28T11:14:13.816Z,85.10
2018-04-28T11:16:42.824Z,86.40
2018-04-28T11:19:11.084Z,85.80
2018-04-28T11:21:38.564Z,85.80
2018-04-28T11:24:06.806Z,82.50
2018-04-28T11:26:34.306Z,82.40
2018-04-28T11:29:02.572Z,83.50
2018-04-28T11:31:30.821Z,80.10
2018-04-28T11:33:59.792Z,79.20
2018-04-28T11:36:27.267Z,79.10
2018-04-28T11:38:56.321Z,80.40
2018-04-28T11:41:23.842Z,80.30
2018-04-28T11:43:51.379Z,78.30
2018-04-28T11:46:18.844Z,80.00
2018-04-28T11:48:46.338Z,79.30
2018-04-28T11:51:13.830Z,79.30
2018-04-28T11:53:41.366Z,80.10
2018-04-28T11:56:08.844Z,78.20
2018-04-28T11:58:36.372Z,78.40
2018-04-28T12:01:03.848Z,75.70
2018-04-28T12:03:31.337Z,75.30
2018-04-28T12:06:00.364Z,73.20
2018-04-28T12:08:28.633Z,72.70
2018-04-28T12:10:56.882Z,74.80
2018-04-28T12:13:24.383Z,74.70
2018-04-28T12:15:52.619Z,72.50
2018-04-28T12:18:20.083Z,72.40
2018-04-28T12:20:47.576Z,72.20
2018-04-28T12:23:15.838Z,73.70
2018-04-28T12:25:44.088Z,74.30
2018-04-28T12:28:11.560Z,74.30
2018-04-28T12:30:39.080Z,76.30
2018-04-28T12:33:07.365Z,76.10
2018-04-28T12:35:34.844Z,76.10
2018-04-28T12:38:06.601Z,77.30
2018-04-28T12:40:34.072Z,76.70
2018-04-28T12:43:02.308Z,77.10
2018-04-28T12:45:29.796Z,77.10
2018-04-28T12:47:58.054Z,75.20
2018-04-28T12:50:26.342Z,75.40
2018-04-28T12:52:54.315Z,75.50
2018-04-28T12:55:26.991Z,74.00
2018-04-28T12:57:54.679Z,72.50
2018-04-28T13:00:22.186Z,76.30
2018-04-28T13:02:49.776Z,73.70
2018-04-28T13:05:17.409Z,74.10
2018-04-28T13:07:44.904Z,73.80
2018-04-28T13:10:13.187Z,73.50
2018-04-28T13:12:41.426Z,73.40
2018-04-28T13:15:08.895Z,73.40
2018-04-28T13:17:37.139Z,73.20
2018-04-28T13:20:04.625Z,72.40
2018-04-28T13:22:32.098Z,72.50
2018-04-28T13:25:00.336Z,73.60
2018-04-28T13:27:27.923Z,73.60
2018-04-28T13:29:55.407Z,72.60
2018-04-28T13:32:22.924Z,73.20
2018-04-28T13:34:50.349Z,72.50
2018-04-28T13:37:17.810Z,73.10
2018-04-28T13:39:45.296Z,72.80
2018-04-28T13:42:13.568Z,73.50
2018-04-28T13:44:42.208Z,73.00
2018-04-28T13:47:09.691Z,73.00
2018-04-28T13:49:37.162Z,72.70
2018-04-28T13:52:04.648Z,73.30
2018-04-28T13:54:32.879Z,71.40
2018-04-28T13:57:00.493Z,71.40
2018-04-28T13:59:28.756Z,73.00
2018-04-28T14:01:56.621Z,72.90
2018-04-28T14:04:24.092Z,73.00
2018-04-28T14:06:52.339Z,75.30
2018-04-28T14:09:19.853Z,75.30
2018-04-28T14:11:47.364Z,74.80
2018-04-28T14:14:15.599Z,72.90
2018-04-28T14:16:43.100Z,72.90
2018-04-28T14:19:10.633Z,72.80
2018-04-28T14:21:38.236Z,72.10
2018-04-28T14:24:06.556Z,71.80
2018-04-28T14:26:34.076Z,71.80
2018-04-28T14:29:01.730Z,70.70
2018-04-28T14:31:29.972Z,70.60
2018-04-28T14:33:57.445Z,70.60
2018-04-28T14:36:24.909Z,73.90
2018-04-28T14:38:53.161Z,72.50
2018-04-28T14:41:20.640Z,71.80
2018-04-28T14:43:48.118Z,71.40
2018-04-28T14:46:16.447Z,70.30
2018-04-28T14:48:43.825Z,70.30
2018-04-28T14:51:11.301Z,70.90
2018-04-28T14:53:39.528Z,72.50
2018-04-28T14:56:07.008Z,72.50
2018-04-28T14:58:34.479Z,72.30
2018-04-28T15:01:02.712Z,70.90
2018-04-28T15:03:30.179Z,70.90
2018-04-28T15:05:57.822Z,70.90
2018-04-28T15:08:25.401Z,70.80
2018-04-28T15:10:52.891Z,70.60
2018-04-28T15:13:20.349Z,71.30
2018-04-28T15:15:48.595Z,70.50
2018-04-28T15:18:16.084Z,70.50
2018-04-28T15:20:44.330Z,72.70
2018-04-28T15:23:11.915Z,72.70
2018-04-28T15:25:40.145Z,74.20
2018-04-28T15:28:07.631Z,73.50
2018-04-28T15:30:37.234Z,74.20
2018-04-28T15:33:04.699Z,74.20
2018-04-28T15:35:32.182Z,73.40
2018-04-28T15:38:00.447Z,73.00
2018-04-28T15:40:28.668Z,74.60
2018-04-28T15:42:56.160Z,74.00
2018-04-28T15:45:23.832Z,72.00
2018-04-28T15:47:51.316Z,74.00
2018-04-28T15:50:18.796Z,72.60
2018-04-28T15:52:46.414Z,73.50
2018-04-28T15:55:14.715Z,73.00
2018-04-28T15:57:42.164Z,72.90
2018-04-28T16:00:09.643Z,72.80
2018-04-28T16:02:37.183Z,73.70
2018-04-28T16:05:05.319Z,73.10
2018-04-28T16:07:32.796Z,73.00
2018-04-28T16:10:01.180Z,72.50
2018-04-28T16:12:28.797Z,72.30
2018-04-28T16:14:56.454Z,71.60
2018-04-28T16:17:24.079Z,72.00
2018-04-28T16:19:51.759Z,72.50
2018-04-28T16:22:19.474Z,72.80
2018-04-28T16:24:47.747Z,74.80
2018-04-28T16:27:15.327Z,74.80
2018-04-28T16:29:42.767Z,73.90
2018-04-28T16:32:10.317Z,73.30
2018-04-28T16:34:37.792Z,72.60
2018-04-28T16:37:06.120Z,73.70
2018-04-28T16:39:33.635Z,73.70
2018-04-28T16:42:01.155Z,72.20
2018-04-28T16:44:28.637Z,72.00
2018-04-28T16:46:56.961Z,72.30
2018-04-28T16:49:24.501Z,72.30
2018-04-28T16:51:52.072Z,72.10
2018-04-28T16:54:19.634Z,73.10
2018-04-28T16:56:47.171Z,73.50
2018-04-28T16:59:15.403Z,73.90
2018-04-28T17:01:43.056Z,73.90
2018-04-28T17:04:10.688Z,74.20
2018-04-28T17:06:38.248Z,75.10
2018-04-28T17:09:05.696Z,74.20
2018-04-28T17:11:33.180Z,73.90
2018-04-28T17:14:00.656Z,73.60
2018-04-28T17:16:28.896Z,73.90
2018-04-28T17:18:56.384Z,73.30
2018-04-28T17:21:23.970Z,73.30
2018-04-28T17:23:52.223Z,74.80
2018-04-28T17:26:19.688Z,74.80
2018-04-28T17:28:47.152Z,74.80
2018-04-28T17:31:15.514Z,75.10
2018-04-28T17:33:44.508Z,74.90
2018-04-28T17:36:11.999Z,74.90
2018-04-28T17:38:40.256Z,74.80
2018-04-28T17:41:07.782Z,74.80
2018-04-28T17:43:35.259Z,74.50
2018-04-28T17:46:02.739Z,75.10
2018-04-28T17:48:30.989Z,75.30
2018-04-28T17:50:59.244Z,76.40
2018-04-28T17:53:26.728Z,76.30
2018-04-28T17:55:54.986Z,76.70
2018-04-28T17:58:22.446Z,76.80
2018-04-28T18:00:49.931Z,75.10
2018-04-28T18:03:18.187Z,77.50
2018-04-28T18:05:45.675Z,77.50
2018-04-28T18:08:13.918Z,75.40
2018-04-28T18:10:41.390Z,75.40
2018-04-28T18:13:09.658Z,76.60
2018-04-28T18:15:37.243Z,76.50
2018-04-28T18:18:05.492Z,78.50
2018-04-28T18:20:32.967Z,78.50
2018-04-28T18:23:01.218Z,79.20
2018-04-28T18:25:28.683Z,79.20
2018-04-28T18:27:56.152Z,79.80
2018-04-28T18:30:24.379Z,77.60
2018-04-28T18:32:51.875Z,77.50
2018-04-28T18:35:19.355Z,78.10
2018-04-28T18:37:47.609Z,78.10
2018-04-28T18:40:15.075Z,78.10
2018-04-28T18:42:42.582Z,77.60
2018-04-28T18:45:10.340Z,77.50
2018-04-28T18:47:37.828Z,77.10
2018-04-28T18:50:09.820Z,77.20
2018-04-28T18:52:38.078Z,76.40
2018-04-28T18:55:05.586Z,76.40
2018-04-28T18:57:33.052Z,75.70
2018-04-28T19:00:00.523Z,75.30
2018-04-28T19:02:29.542Z,76.40
2018-04-28T19:04:58.515Z,76.20
2018-04-28T19:07:25.988Z,76.10
2018-04-28T19:09:54.988Z,76.50
2018-04-28T19:12:22.452Z,76.50
2018-04-28T19:14:50.843Z,78.40
2018-04-28T19:17:19.088Z,78.50
2018-04-28T19:19:46.561Z,78.50
2018-04-28T19:22:14.989Z,80.90
2018-04-28T19:24:42.955Z,80.80
2018-04-28T19:27:10.963Z,79.20
2018-04-28T19:29:38.423Z,81.20
2018-04-28T19:32:07.395Z,83.60
2018-04-28T19:34:34.901Z,83.70
2018-04-28T19:37:03.133Z,82.80
2018-04-28T19:39:30.607Z,82.80
2018-04-28T19:41:59.600Z,78.90
2018-04-28T19:44:27.153Z,78.80
2018-04-28T19:46:54.651Z,79.00
2018-04-28T19:49:22.146Z,79.30
2018-04-28T19:51:49.615Z,78.40
2018-04-28T19:54:17.607Z,79.90
2018-04-28T19:56:45.064Z,81.10
2018-04-28T19:59:12.611Z,79.00
2018-04-28T20:01:40.090Z,79.40
2018-04-28T20:04:08.337Z,82.50
2018-04-28T20:06:35.846Z,82.50
2018-04-28T20:09:03.349Z,82.70
2018-04-28T20:11:30.860Z,81.90
2018-04-28T20:13:59.135Z,82.70
2018-04-28T20:16:27.535Z,86.80
2018-04-28T20:18:55.222Z,86.80
2018-04-28T20:21:22.818Z,85.10
2018-04-28T20:24:03.073Z,82.20
2018-04-28T20:26:30.553Z,82.10
2018-04-28T20:28:58.077Z,82.10
2018-04-28T20:31:26.312Z,84.10
2018-04-28T20:33:53.789Z,83.50
2018-04-28T20:36:21.297Z,82.20
2018-04-28T20:38:49.845Z,83.30
2018-04-28T20:41:18.467Z,84.30
2018-04-28T20:43:46.014Z,84.30
2018-04-28T20:46:14.268Z,84.30
2018-04-28T20:48:42.090Z,84.30
2018-04-28T20:51:09.625Z,85.10
2018-04-28T20:53:37.892Z,84.20
2018-04-28T20:56:06.124Z,83.10
2018-04-28T20:58:33.620Z,83.10
2018-04-28T21:01:01.888Z,82.50
2018-04-28T21:03:30.152Z,82.20
2018-04-28T21:05:57.845Z,82.10
2018-04-28T21:08:26.129Z,83.90
2018-04-28T21:10:54.369Z,84.20
2018-04-28T21:13:21.961Z,84.30
2018-04-28T21:15:49.544Z,83.50
2018-04-28T21:18:17.125Z,84.00
2018-04-28T21:20:44.607Z,83.00
2018-04-28T21:23:12.122Z,81.80
2018-04-28T21:25:39.705Z,80.60
2018-04-28T21:28:07.363Z,81.20
2018-04-28T21:30:34.864Z,81.60
2018-04-28T21:33:02.374Z,80.80
2018-04-28T21:35:29.953Z,79.00
2018-04-28T21:37:57.433Z,79.60
2018-04-28T21:40:25.688Z,80.20
2018-04-28T21:42:53.156Z,80.10
2018-04-28T21:45:21.425Z,80.30
2018-04-28T21:47:49.702Z,80.60
2018-04-28T21:50:17.374Z,80.10
2018-04-28T21:52:45.643Z,80.00
2018-04-28T21:55:13.908Z,81.40
2018-04-28T21:57:43.022Z,81.10
2018-04-28T22:00:11.566Z,80.90
2018-04-28T22:02:39.040Z,80.90
2018-04-28T22:05:06.581Z,81.70
2018-04-28T22:07:34.073Z,81.50
2018-04-28T22:10:01.545Z,81.60
2018-04-28T22:12:29.047Z,82.60
2018-04-28T22:14:56.566Z,82.40
2018-04-28T22:17:24.084Z,83.60
2018-04-28T22:19:51.558Z,83.00
2018-04-28T22:22:19.057Z,82.50
2018-04-28T22:24:46.523Z,82.30
2018-04-28T22:27:14.027Z,82.00
2018-04-28T22:29:41.522Z,81.90
2018-04-28T22:32:09.031Z,82.60
2018-04-28T22:34:36.504Z,82.90
2018-04-28T22:37:03.974Z,83.00
2018-04-28T22:39:32.237Z,83.90
2018-04-28T22:42:00.479Z,84.90
2018-04-28T22:44:27.971Z,84.90
2018-04-28T22:46:56.210Z,85.80
2018-04-28T22:49:23.749Z,85.80
2018-04-28T22:51:51.264Z,85.20
2018-04-28T22:54:19.565Z,85.90
2018-04-28T22:56:47.264Z,85.90
2018-04-28T22:59:14.741Z,87.20
2018-04-28T23:01:42.249Z,87.50
2018-04-28T23:04:09.741Z,87.90
2018-04-28T23:06:37.246Z,88.00
2018-04-28T23:09:04.902Z,89.70
2018-04-28T23:11:33.153Z,89.30
2018-04-28T23:14:00.660Z,89.30
2018-04-28T23:16:28.191Z,89.00
2018-04-28T23:18:56.632Z,88.00
2018-04-28T23:21:24.156Z,88.00
2018-04-28T23:23:51.619Z,86.70
2018-04-28T23:26:19.212Z,86.90
2018-04-28T23:28:46.806Z,86.30
2018-04-28T23:31:15.141Z,87.40
2018-04-28T23:33:42.641Z,87.40
2018-04-28T23:36:10.129Z,87.80
2018-04-28T23:38:37.616Z,88.20
2018-04-28T23:41:05.098Z,88.80
2018-04-28T23:43:33.384Z,89.60
2018-04-28T23:46:00.869Z,89.60
2018-04-28T23:48:28.382Z,90.10
2018-04-28T23:50:56.187Z,89.80
2018-04-28T23:53:24.571Z,90.20
2018-04-28T23:55:52.211Z,90.20
2018-04-28T23:58:20.485Z,90.10
